createdAt,value
2018-07-09T00:00:40.779Z,4.70
2018-07-09T00:05:36.113Z,4.50
2018-07-09T00:10:46.556Z,5.00
2018-07-09T00:15:39.585Z,4.43
2018-07-09T00:20:32.677Z,4.50
2018-07-09T00:25:25.677Z,5.40
2018-07-09T00:30:18.725Z,4.37
2018-07-09T00:35:11.745Z,4.57
2018-07-09T00:40:04.982Z,4.97
2018-07-09T00:44:58.023Z,5.03
2018-07-09T00:49:51.077Z,4.60
2018-07-09T00:54:44.099Z,4.80
2018-07-09T00:59:37.146Z,5.03
2018-07-09T01:04:30.160Z,5.50
2018-07-09T01:09:23.204Z,5.30
2018-07-09T01:14:16.189Z,5.40
2018-07-09T01:19:09.167Z,5.20
2018-07-09T01:24:02.314Z,5.27
2018-07-09T01:28:55.344Z,5.57
2018-07-09T01:33:48.364Z,5.10
2018-07-09T01:38:41.265Z,5.10
2018-07-09T01:43:34.216Z,5.53
2018-07-09T01:48:27.206Z,5.30
2018-07-09T01:53:20.197Z,5.50
2018-07-09T01:58:13.269Z,5.80
2018-07-09T02:03:06.387Z,5.97
2018-07-09T02:07:59.361Z,6.07
2018-07-09T02:12:52.326Z,5.70
2018-07-09T02:17:45.280Z,5.37
2018-07-09T02:22:38.345Z,5.70
2018-07-09T02:27:31.280Z,6.27
2018-07-09T02:32:24.230Z,5.90
2018-07-09T02:37:17.347Z,5.70
2018-07-09T02:42:10.320Z,5.67
2018-07-09T02:47:03.380Z,6.27
2018-07-09T02:51:56.584Z,6.63
2018-07-09T02:56:49.604Z,6.00
2018-07-09T03:01:42.558Z,5.80
2018-07-09T03:06:35.504Z,6.13
2018-07-09T03:11:28.484Z,5.90
2018-07-09T03:16:21.374Z,5.83
2018-07-09T03:21:14.396Z,6.10
2018-07-09T03:26:07.372Z,5.53
2018-07-09T03:31:00.450Z,5.83
2018-07-09T03:35:53.535Z,6.03
2018-07-09T03:40:46.637Z,5.40
2018-07-09T03:45:39.624Z,5.30
2018-07-09T03:50:32.700Z,5.40
2018-07-09T03:55:25.657Z,5.43
2018-07-09T04:00:18.707Z,5.57
2018-07-09T04:05:11.656Z,6.00
2018-07-09T04:10:04.650Z,5.60
2018-07-09T04:14:57.590Z,6.10
2018-07-09T04:19:50.527Z,6.27
2018-07-09T04:24:43.532Z,7.20
2018-07-09T04:29:36.520Z,7.07
2018-07-09T04:34:29.436Z,6.57
2018-07-09T04:39:22.474Z,6.63
2018-07-09T04:44:15.415Z,5.83
2018-07-09T04:49:08.316Z,5.60
2018-07-09T04:54:01.208Z,5.53
2018-07-09T04:58:54.274Z,5.33
2018-07-09T05:03:47.348Z,5.50
2018-07-09T05:08:40.283Z,5.43
2018-07-09T05:13:33.286Z,5.30
2018-07-09T05:18:26.298Z,5.00
2018-07-09T05:23:19.277Z,5.50
2018-07-09T05:28:12.345Z,4.57
2018-07-09T05:33:05.380Z,4.80
2018-07-09T05:37:58.533Z,5.20
2018-07-09T05:42:51.565Z,4.60
2018-07-09T05:47:44.998Z,4.60
2018-07-09T05:52:38.076Z,5.40
2018-07-09T05:57:31.171Z,4.50
2018-07-09T06:02:24.254Z,4.93
2018-07-09T06:07:17.276Z,4.53
2018-07-09T06:12:10.439Z,4.23
2018-07-09T06:17:03.569Z,4.23
2018-07-09T06:21:56.588Z,4.03
2018-07-09T06:26:49.564Z,3.80
2018-07-09T06:31:42.633Z,4.03
2018-07-09T06:36:35.649Z,3.50
2018-07-09T06:41:28.613Z,3.83
2018-07-09T06:46:21.693Z,3.90
2018-07-09T06:51:14.776Z,4.20
2018-07-09T06:56:07.797Z,3.83
2018-07-09T07:01:00.937Z,3.40
2018-07-09T07:05:54.036Z,3.87
2018-07-09T07:10:47.162Z,3.90
2018-07-09T07:15:40.248Z,3.43
2018-07-09T07:20:33.261Z,3.30
2018-07-09T07:25:26.321Z,3.40
2018-07-09T07:30:19.459Z,3.50
2018-07-09T07:35:12.470Z,3.30
2018-07-09T07:40:05.930Z,2.90
2018-07-09T07:44:59.427Z,3.10
2018-07-09T07:49:52.396Z,2.97
2018-07-09T07:54:45.547Z,3.00
2018-07-09T07:59:38.680Z,2.80
2018-07-09T08:04:31.784Z,2.60
2018-07-09T08:09:25.058Z,3.17
2018-07-09T08:14:18.353Z,2.50
2018-07-09T08:19:11.419Z,2.60
2018-07-09T08:24:04.777Z,2.43
2018-07-09T08:28:58.200Z,3.00
2018-07-09T08:33:51.557Z,2.80
2018-07-09T08:38:44.733Z,3.07
2018-07-09T08:43:37.708Z,2.80
2018-07-09T08:48:31.031Z,2.90
2018-07-09T08:53:24.177Z,3.03
2018-07-09T08:58:17.295Z,2.80
2018-07-09T09:03:10.376Z,2.93
2018-07-09T09:08:03.438Z,2.30
2018-07-09T09:12:56.445Z,2.53
2018-07-09T09:17:49.439Z,2.50
2018-07-09T09:22:42.489Z,1.70
2018-07-09T09:27:35.579Z,2.20
2018-07-09T09:32:28.584Z,1.87
2018-07-09T09:37:21.710Z,2.10
2018-07-09T09:42:14.692Z,2.20
2018-07-09T09:47:07.792Z,2.00
2018-07-09T09:52:00.808Z,2.13
2018-07-09T09:56:53.782Z,2.33
2018-07-09T10:01:47.058Z,2.23
2018-07-09T10:06:39.983Z,2.77
2018-07-09T10:11:33.005Z,2.60
2018-07-09T10:16:26.014Z,2.83
2018-07-09T10:21:19.103Z,2.60
2018-07-09T10:26:12.290Z,2.63
2018-07-09T10:31:05.396Z,2.50
2018-07-09T10:35:58.441Z,2.53
2018-07-09T10:40:51.588Z,1.90
2018-07-09T10:45:44.607Z,2.17
2018-07-09T10:50:37.665Z,2.60
2018-07-09T10:55:30.696Z,2.20
2018-07-09T11:00:23.673Z,2.60
2018-07-09T11:05:16.610Z,2.37
2018-07-09T11:10:09.637Z,2.63
2018-07-09T11:15:02.779Z,2.50
2018-07-09T11:19:55.956Z,2.30
2018-07-09T11:24:48.944Z,2.50
2018-07-09T11:29:42.195Z,2.57
2018-07-09T11:34:35.328Z,2.23
2018-07-09T11:39:28.525Z,2.40
2018-07-09T11:44:21.568Z,2.60
2018-07-09T11:49:14.532Z,3.00
2018-07-09T11:54:07.634Z,2.57
2018-07-09T11:59:00.723Z,2.90
2018-07-09T12:03:53.901Z,3.37
2018-07-09T12:08:46.884Z,2.37
2018-07-09T12:13:39.936Z,3.20
2018-07-09T12:18:33.416Z,3.07
2018-07-09T12:23:26.525Z,2.80
2018-07-09T12:28:19.565Z,2.90
2018-07-09T12:33:12.545Z,2.70
2018-07-09T12:38:06.031Z,3.00
2018-07-09T12:42:59.123Z,3.20
2018-07-09T12:47:52.107Z,3.00
2018-07-09T12:52:45.043Z,2.97
2018-07-09T12:57:38.064Z,2.83
2018-07-09T13:02:31.278Z,3.10
2018-07-09T13:07:24.413Z,2.87
2018-07-09T13:12:22.823Z,3.37
2018-07-09T13:17:15.933Z,3.33
2018-07-09T13:22:08.975Z,3.10
2018-07-09T13:27:02.121Z,3.40
2018-07-09T13:31:55.354Z,3.37
2018-07-09T13:36:48.732Z,3.70
2018-07-09T13:41:41.770Z,3.67
2018-07-09T13:46:34.841Z,3.60
2018-07-09T13:51:27.922Z,4.00
2018-07-09T13:56:22.377Z,3.93
2018-07-09T14:01:15.325Z,3.93
2018-07-09T14:06:08.328Z,4.80
2018-07-09T14:11:01.337Z,3.90
2018-07-09T14:15:54.363Z,3.90
2018-07-09T14:20:47.253Z,4.27
2018-07-09T14:25:40.519Z,4.20
2018-07-09T14:30:33.804Z,3.60
2018-07-09T14:35:26.927Z,3.40
2018-07-09T14:40:19.951Z,3.67
2018-07-09T14:45:13.020Z,3.40
2018-07-09T14:50:06.113Z,3.30
2018-07-09T14:54:59.218Z,3.60
2018-07-09T14:59:52.264Z,3.40
2018-07-09T15:04:45.277Z,3.40
2018-07-09T15:09:38.240Z,3.57
2018-07-09T15:14:31.728Z,3.10
2018-07-09T15:19:24.753Z,2.93
2018-07-09T15:24:17.824Z,2.87
2018-07-09T15:29:10.737Z,3.00
2018-07-09T15:34:03.808Z,3.07
2018-07-09T15:38:56.767Z,3.20
2018-07-09T15:43:59.148Z,3.03
2018-07-09T15:48:52.066Z,3.13
2018-07-09T15:53:45.021Z,3.00
2018-07-09T15:58:38.204Z,3.03
2018-07-09T16:03:31.146Z,3.23
2018-07-09T16:08:24.134Z,3.40
2018-07-09T16:13:17.180Z,3.00
2018-07-09T16:18:10.205Z,3.10
2018-07-09T16:23:03.352Z,2.97
2018-07-09T16:27:56.339Z,2.90
2018-07-09T16:32:49.418Z,3.00
2018-07-09T16:37:42.392Z,2.97
2018-07-09T16:42:35.369Z,3.07
2018-07-09T16:47:28.564Z,3.50
2018-07-09T16:52:21.640Z,3.33
2018-07-09T16:57:14.644Z,3.33
2018-07-09T17:02:07.665Z,3.00
2018-07-09T17:07:00.749Z,3.10
2018-07-09T17:11:53.780Z,2.90
2018-07-09T17:16:46.897Z,3.00
2018-07-09T17:21:39.936Z,2.80
2018-07-09T17:26:33.008Z,2.80
2018-07-09T17:31:25.907Z,2.53
2018-07-09T17:36:18.832Z,2.07
2018-07-09T17:41:11.839Z,2.77
2018-07-09T17:46:05.070Z,2.50
2018-07-09T17:50:58.022Z,3.03
2018-07-09T17:55:50.931Z,2.70
2018-07-09T18:00:43.847Z,2.40
2018-07-09T18:05:36.787Z,2.43
2018-07-09T18:10:30.156Z,2.90
2018-07-09T18:15:23.281Z,2.23
2018-07-09T18:20:16.314Z,2.20
2018-07-09T18:25:09.440Z,1.90
2018-07-09T18:30:02.425Z,2.20
2018-07-09T18:34:55.739Z,2.07
2018-07-09T18:39:48.764Z,2.03
2018-07-09T18:44:41.786Z,2.67
2018-07-09T18:49:34.824Z,2.60
2018-07-09T18:54:27.762Z,2.50
2018-07-09T18:59:20.863Z,2.37
2018-07-09T19:04:13.793Z,2.10
2018-07-09T19:09:06.776Z,1.53
2018-07-09T19:14:00.304Z,1.90
2018-07-09T19:19:10.780Z,2.13
2018-07-09T19:24:03.443Z,1.90
2018-07-09T19:28:54.885Z,2.27
2018-07-09T19:33:46.532Z,2.40
2018-07-09T19:38:38.660Z,2.17
2018-07-09T19:43:30.262Z,2.40
2018-07-09T19:48:21.755Z,2.57
2018-07-09T19:53:13.390Z,2.23
2018-07-09T19:58:05.296Z,2.33
2018-07-09T20:02:56.818Z,2.20
2018-07-09T20:07:48.960Z,2.07
2018-07-09T20:12:46.190Z,2.07
2018-07-09T20:17:42.199Z,2.43
2018-07-09T20:22:33.640Z,2.30
2018-07-09T20:27:25.144Z,2.70
2018-07-09T20:32:16.619Z,2.30
2018-07-09T20:37:08.129Z,2.20
2018-07-09T20:41:59.653Z,2.30
2018-07-09T20:46:51.190Z,2.30
2018-07-09T20:51:42.646Z,2.17
2018-07-09T20:56:34.132Z,2.03
2018-07-09T21:01:25.578Z,2.17
2018-07-09T21:06:17.019Z,2.30
2018-07-09T21:11:08.530Z,2.43
2018-07-09T21:16:00.207Z,3.00
2018-07-09T21:20:51.652Z,2.03
2018-07-09T21:25:43.203Z,2.70
2018-07-09T21:30:35.123Z,2.40
2018-07-09T21:35:26.709Z,2.20
2018-07-09T21:40:18.160Z,2.60
2018-07-09T21:45:09.659Z,2.43
2018-07-09T21:50:01.144Z,2.60
2018-07-09T21:54:52.623Z,2.40
2018-07-09T21:59:44.127Z,2.50
2018-07-09T22:04:35.645Z,2.70
2018-07-09T22:09:27.201Z,2.60
2018-07-09T22:14:18.688Z,2.53
2018-07-09T22:19:10.212Z,2.50
2018-07-09T22:24:01.681Z,2.90
2018-07-09T22:28:53.154Z,2.37
2018-07-09T22:33:46.060Z,2.67
2018-07-09T22:38:39.033Z,2.37
2018-07-09T22:43:49.273Z,2.53
2018-07-09T22:48:42.532Z,2.60
2018-07-09T22:53:36.380Z,2.50
2018-07-09T22:58:29.557Z,2.53
2018-07-09T23:03:22.611Z,2.80
2018-07-09T23:08:15.593Z,2.50
2018-07-09T23:13:12.373Z,2.70
2018-07-09T23:18:22.749Z,2.57
2018-07-09T23:23:14.242Z,2.90
2018-07-09T23:28:05.675Z,2.57
2018-07-09T23:32:57.213Z,2.47
2018-07-09T23:37:48.716Z,2.87
2018-07-09T23:42:40.232Z,2.73
2018-07-09T23:47:31.705Z,2.67
2018-07-09T23:52:23.178Z,2.57
2018-07-09T23:59:38.640Z,2.60
